AAL209 KJFK-LIRF
Flight info
| Callsign | AAL209 |
|---|---|
| Flight time | N/A |
| Altitude | 37000 |
| Route | HAPIE DCT YAHOO DCT WHALE DCT NANSO/M085F370 N59E RAFIN DCT 45N050W 47N040W 49N030W 51N020W DCT DINIM DCT ELSOX/M085F390 DCT TAKAS/N0490F390 DCT ALUTA DCT TERKU DCT KORER DCT LEMKA DCT BEBIX/N0495F400 DCT VALKU/N0493F390 DCT TIS DCT MEBAK DCT GIPNO DCT BALSI DCT OBIGO DCT ROBEX DCT LAPRI/N0488F400 DCT MOGBO/N0487F410 DCT ELB/N0485F400 DCT ELKAP |
| Aircraft | B789/H-SDE1E2E3FGHIJ2J3J4J5M1RWXY/LB1D1 |
Departure
| Time | N/A |
|---|---|
| Airport | John F. Kennedy International Airport (KJFK) |
Arrival
| Time | 2026-05-05 12:36 |
|---|---|
| Airport | Rome–Fiumicino Leonardo da Vinci International Airport (LIRF) |
| Time | Latitude | Longitude | Altitude | Speed | Heading |
|---|---|---|---|---|---|
| 2026-05-05 11:53 | 44.66578 | 7.84773 | 37002 ft | 476 kts | 141° |
| 2026-05-05 11:53 | 44.64213 | 7.88035 | 37002 ft | 476 kts | 141° |
| 2026-05-05 11:53 | 44.59477 | 7.94559 | 37000 ft | 478 kts | 141° |
| 2026-05-05 11:54 | 44.54726 | 8.01087 | 36977 ft | 479 kts | 142° |
| 2026-05-05 11:54 | 44.49969 | 8.07608 | 36980 ft | 477 kts | 142° |
| 2026-05-05 11:55 | 44.47611 | 8.10838 | 36527 ft | 473 kts | 142° |
| 2026-05-05 11:55 | 44.45245 | 8.14065 | 35732 ft | 475 kts | 142° |
| 2026-05-05 11:55 | 44.42890 | 8.17279 | 35190 ft | 470 kts | 142° |
| 2026-05-05 11:55 | 44.40589 | 8.20423 | 34749 ft | 465 kts | 142° |
| 2026-05-05 11:56 | 44.38273 | 8.23575 | 34148 ft | 468 kts | 142° |
| 2026-05-05 11:56 | 44.35935 | 8.26746 | 33937 ft | 466 kts | 142° |
| 2026-05-05 11:56 | 44.33616 | 8.29900 | 33619 ft | 467 kts | 142° |
| 2026-05-05 11:56 | 44.31286 | 8.33065 | 33232 ft | 468 kts | 142° |
| 2026-05-05 11:57 | 44.28950 | 8.36230 | 32988 ft | 465 kts | 142° |
| 2026-05-05 11:57 | 44.26629 | 8.39375 | 32981 ft | 465 kts | 142° |
| 2026-05-05 11:57 | 44.21943 | 8.45699 | 32981 ft | 470 kts | 142° |
| 2026-05-05 11:58 | 44.17309 | 8.51955 | 32979 ft | 470 kts | 142° |
| 2026-05-05 11:58 | 44.12603 | 8.58281 | 32981 ft | 470 kts | 142° |
| 2026-05-05 11:59 | 44.07905 | 8.64583 | 32967 ft | 476 kts | 142° |
| 2026-05-05 11:59 | 44.03076 | 8.71050 | 32977 ft | 485 kts | 142° |
| 2026-05-05 12:00 | 43.98201 | 8.77565 | 32973 ft | 486 kts | 142° |
| 2026-05-05 12:00 | 43.94153 | 8.82959 | 32976 ft | 485 kts | 142° |
| 2026-05-05 12:01 | 43.89280 | 8.89439 | 32983 ft | 485 kts | 142° |
| 2026-05-05 12:01 | 43.84400 | 8.95911 | 32971 ft | 487 kts | 142° |
| 2026-05-05 12:02 | 43.79500 | 9.02398 | 32969 ft | 487 kts | 142° |
| 2026-05-05 12:02 | 43.74620 | 9.08845 | 32965 ft | 481 kts | 142° |
| 2026-05-05 12:03 | 43.69780 | 9.15211 | 32981 ft | 487 kts | 142° |
| 2026-05-05 12:03 | 43.64872 | 9.21669 | 32984 ft | 487 kts | 142° |
| 2026-05-05 12:04 | 43.59948 | 9.28120 | 32987 ft | 488 kts | 142° |
| 2026-05-05 12:04 | 43.55020 | 9.34567 | 32988 ft | 488 kts | 142° |
| 2026-05-05 12:05 | 43.50083 | 9.41008 | 32987 ft | 488 kts | 143° |
| 2026-05-05 12:05 | 43.45139 | 9.47443 | 32974 ft | 489 kts | 142° |
| 2026-05-05 12:06 | 43.40156 | 9.53913 | 32991 ft | 496 kts | 143° |
| 2026-05-05 12:06 | 43.35177 | 9.60369 | 32994 ft | 493 kts | 143° |
| 2026-05-05 12:07 | 43.30184 | 9.66818 | 32997 ft | 492 kts | 143° |
| 2026-05-05 12:07 | 43.25184 | 9.73266 | 33002 ft | 494 kts | 143° |
| 2026-05-05 12:08 | 43.20161 | 9.79728 | 32990 ft | 495 kts | 143° |
| 2026-05-05 12:08 | 43.15118 | 9.86199 | 32990 ft | 496 kts | 142° |
| 2026-05-05 12:09 | 43.10079 | 9.92652 | 32987 ft | 496 kts | 143° |
| 2026-05-05 12:09 | 43.05030 | 9.99099 | 32984 ft | 496 kts | 143° |
| 2026-05-05 12:10 | 42.99983 | 10.05531 | 32987 ft | 496 kts | 143° |
| 2026-05-05 12:10 | 42.94920 | 10.11965 | 32986 ft | 499 kts | 143° |
| 2026-05-05 12:11 | 42.89876 | 10.18365 | 32983 ft | 497 kts | 143° |
| 2026-05-05 12:11 | 42.84816 | 10.24766 | 32983 ft | 495 kts | 143° |
| 2026-05-05 12:12 | 42.79764 | 10.31143 | 32999 ft | 495 kts | 143° |
| 2026-05-05 12:12 | 42.75312 | 10.38386 | 32987 ft | 511 kts | 123° |
| 2026-05-05 12:13 | 42.73771 | 10.42795 | 32599 ft | 520 kts | 113° |
| 2026-05-05 12:13 | 42.72842 | 10.47570 | 31787 ft | 524 kts | 100° |
| 2026-05-05 12:13 | 42.72548 | 10.52471 | 31328 ft | 515 kts | 95° |
| 2026-05-05 12:13 | 42.72389 | 10.57271 | 31161 ft | 500 kts | 95° |
| 2026-05-05 12:14 | 42.72004 | 10.61866 | 31037 ft | 479 kts | 106° |
| 2026-05-05 12:14 | 42.71054 | 10.66104 | 30803 ft | 461 kts | 117° |
| 2026-05-05 12:14 | 42.69587 | 10.69932 | 30171 ft | 454 kts | 127° |
| 2026-05-05 12:14 | 42.67923 | 10.73564 | 29538 ft | 451 kts | 127° |
| 2026-05-05 12:15 | 42.66273 | 10.77166 | 28968 ft | 447 kts | 127° |
| 2026-05-05 12:15 | 42.64655 | 10.80693 | 28391 ft | 443 kts | 126° |
| 2026-05-05 12:15 | 42.63032 | 10.84226 | 27821 ft | 439 kts | 126° |
| 2026-05-05 12:15 | 42.61422 | 10.87727 | 27253 ft | 435 kts | 126° |
| 2026-05-05 12:16 | 42.59826 | 10.91197 | 26708 ft | 432 kts | 126° |
| 2026-05-05 12:16 | 42.58240 | 10.94637 | 26162 ft | 428 kts | 126° |
| 2026-05-05 12:16 | 42.56661 | 10.98059 | 25612 ft | 426 kts | 126° |
| 2026-05-05 12:16 | 42.55098 | 11.01443 | 25078 ft | 423 kts | 126° |
| 2026-05-05 12:17 | 42.53539 | 11.04814 | 24535 ft | 420 kts | 126° |
| 2026-05-05 12:17 | 42.51996 | 11.08148 | 24021 ft | 417 kts | 126° |
| 2026-05-05 12:17 | 42.50457 | 11.11469 | 23555 ft | 412 kts | 126° |
| 2026-05-05 12:17 | 42.48945 | 11.14730 | 23043 ft | 407 kts | 126° |
| 2026-05-05 12:18 | 42.47445 | 11.17961 | 22515 ft | 401 kts | 126° |
| 2026-05-05 12:18 | 42.45964 | 11.21143 | 22016 ft | 396 kts | 126° |
| 2026-05-05 12:18 | 42.44569 | 11.24335 | 21534 ft | 393 kts | 116° |
| 2026-05-05 12:18 | 42.43793 | 11.27880 | 21046 ft | 395 kts | 101° |
| 2026-05-05 12:19 | 42.43360 | 11.31551 | 20544 ft | 395 kts | 100° |
| 2026-05-05 12:19 | 42.42969 | 11.35203 | 20069 ft | 390 kts | 100° |
| 2026-05-05 12:19 | 42.42580 | 11.38811 | 19587 ft | 385 kts | 101° |
| 2026-05-05 12:19 | 42.42179 | 11.42323 | 19123 ft | 380 kts | 101° |
| 2026-05-05 12:20 | 42.41765 | 11.45905 | 18656 ft | 380 kts | 101° |
| 2026-05-05 12:20 | 42.41372 | 11.49380 | 18175 ft | 378 kts | 101° |
| 2026-05-05 12:20 | 42.40948 | 11.52901 | 17832 ft | 366 kts | 105° |
| 2026-05-05 12:20 | 42.40056 | 11.55947 | 17728 ft | 343 kts | 126° |
| 2026-05-05 12:21 | 42.38566 | 11.58356 | 17428 ft | 329 kts | 145° |
| 2026-05-05 12:21 | 42.36647 | 11.59976 | 17097 ft | 321 kts | 162° |
| 2026-05-05 12:21 | 42.34555 | 11.61007 | 16708 ft | 320 kts | 165° |
| 2026-05-05 12:21 | 42.32474 | 11.61976 | 16340 ft | 313 kts | 166° |
| 2026-05-05 12:22 | 42.30435 | 11.62912 | 16005 ft | 306 kts | 166° |
| 2026-05-05 12:22 | 42.28473 | 11.63828 | 15858 ft | 292 kts | 166° |
| 2026-05-05 12:22 | 42.26675 | 11.65014 | 15244 ft | 288 kts | 146° |
| 2026-05-05 12:22 | 42.25330 | 11.66959 | 14603 ft | 283 kts | 124° |
| 2026-05-05 12:23 | 42.24588 | 11.69431 | 14001 ft | 289 kts | 102° |
| 2026-05-05 12:23 | 42.24553 | 11.72124 | 13396 ft | 293 kts | 80° |
| 2026-05-05 12:23 | 42.25256 | 11.74692 | 12785 ft | 292 kts | 57° |
| 2026-05-05 12:23 | 42.26430 | 11.76900 | 12197 ft | 289 kts | 53° |
| 2026-05-05 12:24 | 42.27609 | 11.79067 | 11592 ft | 280 kts | 52° |
| 2026-05-05 12:24 | 42.28761 | 11.81166 | 11304 ft | 278 kts | 52° |
| 2026-05-05 12:24 | 42.29908 | 11.83265 | 10537 ft | 281 kts | 52° |
| 2026-05-05 12:24 | 42.31068 | 11.85397 | 9696 ft | 280 kts | 52° |
| 2026-05-05 12:25 | 42.32209 | 11.87500 | 8878 ft | 274 kts | 53° |
| 2026-05-05 12:25 | 42.33058 | 11.89717 | 8786 ft | 261 kts | 77° |
| 2026-05-05 12:25 | 42.33111 | 11.92141 | 8912 ft | 259 kts | 107° |
| 2026-05-05 12:25 | 42.32383 | 11.94289 | 9008 ft | 255 kts | 134° |
| 2026-05-05 12:26 | 42.31053 | 11.95763 | 9014 ft | 243 kts | 160° |
| 2026-05-05 12:26 | 42.29479 | 11.96506 | 9010 ft | 240 kts | 168° |
| 2026-05-05 12:26 | 42.27897 | 11.97190 | 9071 ft | 236 kts | 168° |
| 2026-05-05 12:26 | 42.26305 | 11.97857 | 8951 ft | 244 kts | 168° |
| 2026-05-05 12:27 | 42.24702 | 11.98540 | 8667 ft | 239 kts | 167° |
| 2026-05-05 12:27 | 42.23123 | 11.99221 | 8377 ft | 236 kts | 167° |
| 2026-05-05 12:27 | 42.21566 | 11.99883 | 8086 ft | 234 kts | 168° |
| 2026-05-05 12:27 | 42.20016 | 12.00540 | 7804 ft | 233 kts | 168° |
| 2026-05-05 12:28 | 42.18475 | 12.01192 | 7508 ft | 231 kts | 168° |
| 2026-05-05 12:28 | 42.16950 | 12.01845 | 7237 ft | 230 kts | 168° |
| 2026-05-05 12:28 | 42.15428 | 12.02492 | 6961 ft | 230 kts | 168° |
| 2026-05-05 12:28 | 42.13901 | 12.03140 | 6691 ft | 229 kts | 168° |
| 2026-05-05 12:29 | 42.12393 | 12.03794 | 6392 ft | 228 kts | 164° |
| 2026-05-05 12:29 | 42.11116 | 12.05095 | 6097 ft | 236 kts | 135° |
| 2026-05-05 12:29 | 42.10026 | 12.06708 | 5828 ft | 233 kts | 137° |
| 2026-05-05 12:29 | 42.08920 | 12.08290 | 5551 ft | 231 kts | 137° |
| 2026-05-05 12:30 | 42.07837 | 12.09871 | 5269 ft | 228 kts | 136° |
| 2026-05-05 12:30 | 42.06766 | 12.11443 | 4922 ft | 228 kts | 139° |
| 2026-05-05 12:30 | 42.05687 | 12.13012 | 4504 ft | 224 kts | 136° |
| 2026-05-05 12:30 | 42.04685 | 12.14495 | 4195 ft | 207 kts | 137° |
| 2026-05-05 12:31 | 42.03705 | 12.15927 | 3994 ft | 205 kts | 139° |
| 2026-05-05 12:31 | 42.02748 | 12.17323 | 3748 ft | 200 kts | 137° |
| 2026-05-05 12:31 | 42.01800 | 12.18656 | 3553 ft | 193 kts | 143° |
| 2026-05-05 12:31 | 42.00601 | 12.19361 | 3334 ft | 186 kts | 166° |
| 2026-05-05 12:32 | 41.99381 | 12.19941 | 3084 ft | 185 kts | 165° |
| 2026-05-05 12:32 | 41.98162 | 12.20478 | 2845 ft | 186 kts | 164° |
| 2026-05-05 12:32 | 41.96911 | 12.21003 | 2583 ft | 187 kts | 165° |
| 2026-05-05 12:32 | 41.95672 | 12.21521 | 2330 ft | 186 kts | 165° |
| 2026-05-05 12:33 | 41.94476 | 12.22021 | 2078 ft | 170 kts | 166° |
| 2026-05-05 12:33 | 41.93439 | 12.22461 | 1866 ft | 146 kts | 166° |
| 2026-05-05 12:33 | 41.92506 | 12.22845 | 1693 ft | 135 kts | 166° |
| 2026-05-05 12:33 | 41.91626 | 12.23211 | 1497 ft | 133 kts | 165° |
| 2026-05-05 12:34 | 41.90741 | 12.23580 | 1333 ft | 133 kts | 165° |
| 2026-05-05 12:34 | 41.89858 | 12.23948 | 1159 ft | 132 kts | 163° |
| 2026-05-05 12:34 | 41.88979 | 12.24312 | 997 ft | 129 kts | 160° |
| 2026-05-05 12:34 | 41.88092 | 12.24672 | 833 ft | 137 kts | 159° |
| 2026-05-05 12:35 | 41.87215 | 12.25053 | 641 ft | 126 kts | 159° |
| 2026-05-05 12:35 | 41.86412 | 12.25397 | 462 ft | 118 kts | 162° |
| 2026-05-05 12:35 | 41.85632 | 12.25719 | 298 ft | 117 kts | 164° |
| 2026-05-05 12:35 | 41.84805 | 12.26056 | 135 ft | 131 kts | 162° |
| 2026-05-05 12:36 | 41.83978 | 12.26408 | 26 ft | 111 kts | 162° |
| 2026-05-05 12:36 | 41.83459 | 12.26627 | 19 ft | 44 kts | 162° |
| 2026-05-05 12:36 | 41.83289 | 12.26667 | 17 ft | 20 kts | 187° |
| 2026-05-05 12:36 | 41.83156 | 12.26640 | 15 ft | 18 kts | 193° |
| 2026-05-05 12:37 | 41.83040 | 12.26603 | 16 ft | 16 kts | 192° |
| 2026-05-05 12:37 | 41.82929 | 12.26573 | 16 ft | 16 kts | 189° |
| 2026-05-05 12:37 | 41.82820 | 12.26574 | 16 ft | 16 kts | 168° |
| 2026-05-05 12:37 | 41.82723 | 12.26572 | 16 ft | 11 kts | 215° |
| 2026-05-05 12:38 | 41.82682 | 12.26503 | 16 ft | 6 kts | 203° |
| 2026-05-05 12:38 | 41.82654 | 12.26506 | 15 ft | 8 kts | 167° |
| 2026-05-05 12:38 | 41.82535 | 12.26554 | 15 ft | 27 kts | 163° |
| 2026-05-05 12:38 | 41.82312 | 12.26648 | 15 ft | 35 kts | 162° |
| 2026-05-05 12:39 | 41.82083 | 12.26742 | 15 ft | 33 kts | 163° |
| 2026-05-05 12:39 | 41.81871 | 12.26831 | 15 ft | 31 kts | 162° |
| 2026-05-05 12:39 | 41.81684 | 12.26910 | 16 ft | 27 kts | 163° |